Edgar B Speer — WQZ9670 — position and weather

sailwx.info

Track history (hours):
 
Tides and Currents Weather Stations Pressure Air Temp Water Temp Dewpoint Dewpoint Depression Visibility Wind Speed Wind Dir Waves Ship Positions

Edgar B Speer

More information available from US FCC via Universal Licensing System and Coast Guard Vessel Documentation Center.

Last reported at 2014-Sep-21 12:29 UTC. Time now 2014-Sep-21 18:13 UTC.
Position N 46°07' W 084°01'.

Length 306 m; draft 8 m.

Type: Cargo ship. MMSI: 366971330.

Date/timePositionNaut miles runAvg speedWind from/ knotsBaromVisibWave heightAir tempDewpointWater temp
2014-Sep-21 12:29N 46°07' W 084°01'1110.0
2014-Sep-21 11:24N 45°58' W 083°53'1012.3
2014-Sep-21 10:33N 45°52' W 084°06'1313.1
2014-Sep-21 09:33N 45°51' W 084°25'1212.4
2014-Sep-21 08:33N 45°49' W 084°42'1312.9
2014-Sep-21 07:33N 45°50' W 085°01'9 9.3
2014-Sep-21 06:33N 45°44' W 085°11'1313.4
2014-Sep-21 05:33N 45°33' W 085°23'1413.5
2014-Sep-21 04:33N 45°22' W 085°34'1313.2
2014-Sep-21 03:33N 45°11' W 085°45'1313.2
2014-Sep-21 02:33N 45°01' W 085°56'1413.5
2014-Sep-21 01:33N 44°54' W 086°13'13 0.3
2014-Sep-19 03:32N 44°46' W 086°28'1312.6
2014-Sep-19 02:32N 44°58' W 086°23'1212.6
2014-Sep-19 01:33N 45°10' W 086°18'1212.4
2014-Sep-19 00:33N 45°22' W 086°14'1212.5
2014-Sep-18 23:33N 45°34' W 086°09'1211.7
2014-Sep-18 22:32N 45°44' W 085°59'1312.8
2014-Sep-18 21:33N 45°50' W 085°43'1212.3
2014-Sep-18 20:33N 45°54' W 085°26'1312.9
2014-Sep-18 19:33N 45°52' W 085°08'1313.1
2014-Sep-18 18:33N 45°50' W 084°50'1211.9
2014-Sep-18 17:33N 45°51' W 084°33'1312.9
2014-Sep-18 16:33N 45°53' W 084°14'1312.8
2014-Sep-18 15:33N 45°56' W 083°56'25 7.5
2014-Sep-18 12:13N 46°18' W 084°13'  
2014-Sep-15 13:28N 46°14' W 084°06'20 9.9
2014-Sep-15 11:26N 45°56' W 083°54'1213.4
2014-Sep-15 10:33N 45°51' W 084°09'1413.5
2014-Sep-15 09:33N 45°50' W 084°28'1313.0
2014-Sep-15 08:33N 45°49' W 084°47'1413.7
2014-Sep-15 07:33N 45°50' W 085°07'1110.7
2014-Sep-15 06:33N 45°41' W 085°14'1413.7
2014-Sep-15 05:33N 45°29' W 085°25'1414.0
2014-Sep-15 04:33N 45°18' W 085°36'1413.9
2014-Sep-15 03:33N 45°07' W 085°49'1413.7
2014-Sep-15 02:33N 44°58' W 086°04'14 0.3
2014-Sep-13 02:03N 45°00' W 086°23'1912.6
2014-Sep-13 00:31N 45°19' W 086°16'1212.4
2014-Sep-12 23:33N 45°30' W 086°11'1212.0
2014-Sep-12 22:33N 45°41' W 086°04'1312.8
2014-Sep-12 21:33N 45°48' W 085°49'1312.6
2014-Sep-12 20:33N 45°54' W 085°32'1312.6
2014-Sep-12 19:33N 45°52' W 085°14'1312.7
2014-Sep-12 18:33N 45°50' W 084°56'1212.4
2014-Sep-12 17:33N 45°50' W 084°39'1211.8
2014-Sep-12 16:33N 45°53' W 084°22'1312.9
2014-Sep-12 15:33N 45°54' W 084°04'20 6.3
2014-Sep-12 12:21N 46°14' W 084°10'5 5.8
2014-Sep-12 11:32N 46°18' W 084°13'28 3.4
2014-Sep-12 03:20N 46°37' W 084°44'  
Track history (hours):
 
Tides and Currents Weather Stations Pressure Air Temp Water Temp Dewpoint Dewpoint Depression Visibility Wind Speed Wind Dir Waves Ship Positions

Edgar B Speer

More information available from US FCC via Universal Licensing System and Coast Guard Vessel Documentation Center.

Last reported at 2014-Sep-21 12:29 UTC. Time now 2014-Sep-21 18:13 UTC.
Position N 46°07' W 084°01'.

Length 306 m; draft 8 m.

Type: Cargo ship. MMSI: 366971330.

Date/timePositionNaut miles runAvg speedWind from/ knotsBaromVisibWave heightAir tempDewpointWater temp
2014-Sep-21 12:29N 46°07' W 084°01'1110.0
2014-Sep-21 11:24N 45°58' W 083°53'1012.3
2014-Sep-21 10:33N 45°52' W 084°06'1313.1
2014-Sep-21 09:33N 45°51' W 084°25'1212.4
2014-Sep-21 08:33N 45°49' W 084°42'1312.9
2014-Sep-21 07:33N 45°50' W 085°01'9 9.3
2014-Sep-21 06:33N 45°44' W 085°11'1313.4
2014-Sep-21 05:33N 45°33' W 085°23'1413.5
2014-Sep-21 04:33N 45°22' W 085°34'1313.2
2014-Sep-21 03:33N 45°11' W 085°45'1313.2
2014-Sep-21 02:33N 45°01' W 085°56'1413.5
2014-Sep-21 01:33N 44°54' W 086°13'13 0.3
2014-Sep-19 03:32N 44°46' W 086°28'1312.6
2014-Sep-19 02:32N 44°58' W 086°23'1212.6
2014-Sep-19 01:33N 45°10' W 086°18'1212.4
2014-Sep-19 00:33N 45°22' W 086°14'1212.5
2014-Sep-18 23:33N 45°34' W 086°09'1211.7
2014-Sep-18 22:32N 45°44' W 085°59'1312.8
2014-Sep-18 21:33N 45°50' W 085°43'1212.3
2014-Sep-18 20:33N 45°54' W 085°26'1312.9
2014-Sep-18 19:33N 45°52' W 085°08'1313.1
2014-Sep-18 18:33N 45°50' W 084°50'1211.9
2014-Sep-18 17:33N 45°51' W 084°33'1312.9
2014-Sep-18 16:33N 45°53' W 084°14'1312.8
2014-Sep-18 15:33N 45°56' W 083°56'25 7.5
2014-Sep-18 12:13N 46°18' W 084°13'  
2014-Sep-15 13:28N 46°14' W 084°06'20 9.9
2014-Sep-15 11:26N 45°56' W 083°54'1213.4
2014-Sep-15 10:33N 45°51' W 084°09'1413.5
2014-Sep-15 09:33N 45°50' W 084°28'1313.0
2014-Sep-15 08:33N 45°49' W 084°47'1413.7
2014-Sep-15 07:33N 45°50' W 085°07'1110.7
2014-Sep-15 06:33N 45°41' W 085°14'1413.7
2014-Sep-15 05:33N 45°29' W 085°25'1414.0
2014-Sep-15 04:33N 45°18' W 085°36'1413.9
2014-Sep-15 03:33N 45°07' W 085°49'1413.7
2014-Sep-15 02:33N 44°58' W 086°04'14 0.3
2014-Sep-13 02:03N 45°00' W 086°23'1912.6
2014-Sep-13 00:31N 45°19' W 086°16'1212.4
2014-Sep-12 23:33N 45°30' W 086°11'1212.0
2014-Sep-12 22:33N 45°41' W 086°04'1312.8
2014-Sep-12 21:33N 45°48' W 085°49'1312.6
2014-Sep-12 20:33N 45°54' W 085°32'1312.6
2014-Sep-12 19:33N 45°52' W 085°14'1312.7
2014-Sep-12 18:33N 45°50' W 084°56'1212.4
2014-Sep-12 17:33N 45°50' W 084°39'1211.8
2014-Sep-12 16:33N 45°53' W 084°22'1312.9
2014-Sep-12 15:33N 45°54' W 084°04'20 6.3
2014-Sep-12 12:21N 46°14' W 084°10'5 5.8
2014-Sep-12 11:32N 46°18' W 084°13'28 3.4
2014-Sep-12 03:20N 46°37' W 084°44'  

Dump ship's entire track history